createdAt,value
2022-10-08T00:01:27.388Z,12.87
2022-10-08T00:06:22.487Z,13.29
2022-10-08T00:11:18.372Z,13.21
2022-10-08T00:16:15.392Z,13.05
2022-10-08T00:21:14.571Z,13.08
2022-10-08T00:26:08.009Z,12.70
2022-10-08T00:31:07.616Z,12.89
2022-10-08T00:36:02.399Z,12.80
2022-10-08T00:40:57.200Z,12.43
2022-10-08T00:45:50.522Z,12.08
2022-10-08T00:50:43.968Z,12.70
2022-10-08T00:55:43.327Z,12.45
2022-10-08T01:00:38.699Z,12.38
2022-10-08T01:05:45.564Z,12.20
2022-10-08T01:10:50.134Z,12.16
2022-10-08T01:15:52.156Z,12.30
2022-10-08T01:20:52.882Z,12.47
2022-10-08T01:25:53.947Z,12.39
2022-10-08T01:30:52.293Z,12.19
2022-10-08T01:35:54.247Z,12.35
2022-10-08T01:40:49.659Z,12.26
2022-10-08T01:45:46.924Z,12.27
2022-10-08T01:50:53.701Z,12.08
2022-10-08T01:55:50.442Z,12.02
2022-10-08T02:00:43.896Z,11.81
2022-10-08T02:05:41.208Z,11.76
2022-10-08T02:10:35.893Z,12.11
2022-10-08T02:15:38.597Z,11.89
2022-10-08T02:20:36.422Z,11.99
2022-10-08T02:25:34.825Z,11.54
2022-10-08T02:30:35.608Z,12.16
2022-10-08T02:35:34.853Z,12.00
2022-10-08T02:40:31.736Z,11.46
2022-10-08T02:45:29.040Z,11.57
2022-10-08T02:50:27.650Z,11.93
2022-10-08T02:55:29.151Z,10.69
2022-10-08T03:00:22.673Z,11.23
2022-10-08T03:05:20.510Z,11.05
2022-10-08T03:10:15.935Z,11.20
2022-10-08T03:15:11.775Z,10.81
2022-10-08T03:20:09.564Z,11.03
2022-10-08T03:25:02.829Z,10.80
2022-10-08T03:29:58.098Z,10.81
2022-10-08T03:34:51.381Z,10.84
2022-10-08T03:39:44.639Z,11.06
2022-10-08T03:44:37.777Z,11.05
2022-10-08T03:49:32.386Z,11.05
2022-10-08T03:54:26.122Z,11.04
2022-10-08T03:59:19.424Z,10.79
2022-10-08T04:04:12.642Z,10.53
2022-10-08T04:09:07.395Z,10.94
2022-10-08T04:14:01.772Z,10.44
2022-10-08T04:18:55.031Z,9.68
2022-10-08T04:23:50.870Z,10.67
2022-10-08T04:28:46.302Z,10.26
2022-10-08T04:33:40.071Z,10.86
2022-10-08T04:38:33.526Z,10.58
2022-10-08T04:43:26.758Z,10.78
2022-10-08T04:48:21.453Z,10.12
2022-10-08T04:53:14.724Z,10.58
2022-10-08T04:58:07.849Z,10.11
2022-10-08T05:03:01.163Z,10.56
2022-10-08T05:07:56.959Z,10.65
2022-10-08T05:12:50.289Z,10.59
2022-10-08T05:17:46.218Z,10.47
2022-10-08T05:22:41.886Z,10.30
2022-10-08T05:27:37.089Z,10.57
2022-10-08T05:32:30.449Z,10.49
2022-10-08T05:37:23.970Z,10.74
2022-10-08T05:42:17.237Z,10.58
2022-10-08T05:47:11.906Z,10.83
2022-10-08T05:52:05.398Z,10.91
2022-10-08T05:56:59.034Z,11.32
2022-10-08T06:01:52.968Z,11.33
2022-10-08T06:06:48.332Z,11.06
2022-10-08T06:11:42.616Z,11.94
2022-10-08T06:16:36.560Z,11.68
2022-10-08T06:21:31.320Z,12.03
2022-10-08T06:26:32.918Z,12.47
2022-10-08T06:31:33.983Z,12.70
2022-10-08T06:36:29.517Z,12.91
2022-10-08T06:41:25.714Z,12.93
2022-10-08T06:46:20.065Z,13.22
2022-10-08T06:51:15.800Z,13.62
2022-10-08T06:56:14.596Z,13.89
2022-10-08T07:01:11.438Z,14.10
2022-10-08T07:06:07.734Z,14.22
2022-10-08T07:11:06.158Z,14.18
2022-10-08T07:16:03.495Z,14.64
2022-10-08T07:21:01.322Z,14.90
2022-10-08T07:25:59.477Z,14.98
2022-10-08T07:30:52.585Z,15.19
2022-10-08T07:35:45.693Z,15.46
2022-10-08T07:40:40.260Z,15.61
2022-10-08T07:45:33.498Z,15.82
2022-10-08T07:50:26.777Z,16.05
2022-10-08T07:55:22.515Z,16.27
2022-10-08T08:00:17.423Z,16.28
2022-10-08T08:05:10.983Z,16.28
2022-10-08T08:10:04.851Z,16.72
2022-10-08T08:14:57.953Z,17.02
2022-10-08T08:19:52.489Z,17.08
2022-10-08T08:24:47.387Z,17.43
2022-10-08T08:29:41.577Z,17.65
2022-10-08T08:34:35.042Z,18.01
2022-10-08T08:39:31.876Z,18.27
2022-10-08T08:44:26.812Z,19.09
2022-10-08T08:49:29.319Z,19.94
2022-10-08T08:54:23.377Z,20.53
2022-10-08T08:59:27.466Z,20.74
2022-10-08T09:04:25.874Z,20.90
2022-10-08T09:09:29.945Z,21.25
2022-10-08T09:14:38.156Z,21.94
2022-10-08T09:19:32.439Z,22.26
2022-10-08T09:24:26.058Z,22.27
2022-10-08T09:29:34.679Z,22.63
2022-10-08T09:34:30.514Z,22.67
2022-10-08T09:39:26.099Z,22.75
2022-10-08T09:44:21.978Z,22.54
2022-10-08T09:49:39.919Z,22.54
2022-10-08T09:54:37.910Z,22.49
2022-10-08T09:59:37.699Z,22.43
2022-10-08T10:04:35.727Z,22.42
2022-10-08T10:09:41.714Z,22.37
2022-10-08T10:14:43.886Z,22.44
2022-10-08T10:19:43.458Z,22.41
2022-10-08T10:24:54.630Z,22.19
2022-10-08T10:29:58.823Z,22.28
2022-10-08T10:35:04.785Z,22.26
2022-10-08T10:40:15.177Z,22.01
2022-10-08T10:45:19.689Z,22.08
2022-10-08T10:50:17.679Z,22.24
2022-10-08T10:55:22.057Z,22.15
2022-10-08T11:00:21.637Z,22.22
2022-10-08T11:05:21.888Z,22.39
2022-10-08T11:10:33.331Z,22.68
2022-10-08T11:15:34.939Z,22.76
2022-10-08T11:20:41.602Z,22.82
2022-10-08T11:26:09.898Z,23.08
2022-10-08T11:31:05.083Z,23.16
2022-10-08T11:36:13.293Z,23.33
2022-10-08T11:41:16.258Z,23.16
2022-10-08T11:46:28.748Z,23.33
2022-10-08T11:51:40.109Z,23.23
2022-10-08T11:56:37.002Z,23.30
2022-10-08T12:01:30.325Z,23.30
2022-10-08T12:06:27.466Z,23.35
2022-10-08T12:12:00.085Z,23.18
2022-10-08T12:17:18.616Z,22.90
2022-10-08T12:22:50.567Z,23.06
2022-10-08T12:27:43.980Z,22.92
2022-10-08T12:32:57.624Z,23.39
2022-10-08T12:38:13.678Z,22.93
2022-10-08T12:43:18.659Z,23.26
2022-10-08T12:48:19.643Z,23.53
2022-10-08T12:53:16.892Z,24.05
2022-10-08T12:58:17.964Z,24.59
2022-10-08T13:03:18.303Z,24.65
2022-10-08T13:08:37.197Z,24.17
2022-10-08T13:13:45.053Z,23.86
2022-10-08T13:18:42.207Z,23.63
2022-10-08T13:23:37.801Z,23.40
2022-10-08T13:28:59.187Z,23.20
2022-10-08T13:33:45.504Z,23.32
2022-10-08T13:38:38.658Z,23.08
2022-10-08T13:43:32.545Z,23.26
2022-10-08T13:48:26.565Z,23.00
2022-10-08T13:53:24.086Z,22.86
2022-10-08T13:58:20.336Z,22.93
2022-10-08T14:03:14.549Z,23.08
2022-10-08T14:08:14.173Z,22.71
2022-10-08T14:13:08.479Z,23.29
2022-10-08T14:18:01.662Z,23.24
2022-10-08T14:22:54.899Z,23.15
2022-10-08T14:27:48.264Z,22.72
2022-10-08T14:32:43.233Z,22.58
2022-10-08T14:37:36.810Z,22.38
2022-10-08T14:42:29.901Z,22.41
2022-10-08T14:47:23.154Z,22.09
2022-10-08T14:52:44.375Z,22.05
2022-10-08T14:58:24.723Z,21.14
2022-10-08T15:03:21.427Z,20.75
2022-10-08T15:08:38.416Z,21.20
2022-10-08T15:13:38.137Z,19.81
2022-10-08T15:18:32.802Z,19.88
2022-10-08T15:23:31.911Z,20.36
2022-10-08T15:28:26.824Z,20.31
2022-10-08T16:01:30.549Z,19.31
2022-10-08T16:07:56.698Z,19.62
2022-10-08T16:23:59.749Z,17.99
2022-10-08T16:35:41.031Z,18.90
2022-10-08T16:40:34.327Z,18.64
2022-10-08T17:00:14.375Z,17.35
2022-10-08T17:05:56.967Z,17.48
2022-10-08T17:26:04.601Z,17.08
2022-10-08T17:32:20.881Z,15.97
2022-10-08T17:38:10.034Z,16.89
2022-10-08T17:43:40.252Z,17.16
2022-10-08T17:48:35.231Z,15.96
2022-10-08T17:53:36.371Z,15.88
2022-10-08T17:58:30.280Z,15.85
2022-10-08T18:03:26.499Z,16.17
2022-10-08T18:08:22.804Z,16.09
2022-10-08T18:13:19.725Z,16.32
2022-10-08T18:23:29.745Z,15.66
2022-10-08T18:28:26.175Z,15.97
2022-10-08T18:33:25.015Z,15.77
2022-10-08T18:38:19.621Z,16.04
2022-10-08T18:43:17.359Z,15.45
2022-10-08T18:48:42.233Z,14.21
2022-10-08T18:54:13.977Z,15.05
2022-10-08T18:59:11.958Z,14.76
2022-10-08T19:04:10.871Z,14.27
2022-10-08T19:09:05.674Z,15.36
2022-10-08T19:13:59.060Z,15.19
2022-10-08T19:18:59.480Z,15.23
2022-10-08T19:23:53.370Z,15.17
2022-10-08T19:28:48.586Z,15.09
2022-10-08T19:33:44.574Z,15.04
2022-10-08T19:38:44.201Z,14.61
2022-10-08T19:43:37.512Z,13.63
2022-10-08T19:48:30.887Z,14.63
2022-10-08T19:53:24.268Z,13.58
2022-10-08T19:58:21.312Z,13.23
2022-10-08T20:03:14.785Z,13.32
2022-10-08T20:08:08.180Z,13.99
2022-10-08T20:13:03.536Z,14.77
2022-10-08T20:18:00.035Z,14.82
2022-10-08T20:22:53.326Z,13.58
2022-10-08T20:27:49.573Z,14.67
2022-10-08T20:32:45.450Z,14.14
2022-10-08T20:37:40.500Z,14.51
2022-10-08T20:42:34.027Z,14.30
2022-10-08T20:47:29.942Z,14.36
2022-10-08T20:52:25.707Z,14.30
2022-10-08T20:57:23.470Z,13.86
2022-10-08T21:02:19.780Z,13.61
2022-10-08T21:07:13.290Z,12.83
2022-10-08T21:12:09.409Z,14.08
2022-10-08T21:17:04.033Z,13.93
2022-10-08T21:21:57.584Z,13.35
2022-10-08T21:26:50.854Z,13.60
2022-10-08T21:31:44.487Z,13.52
2022-10-08T21:36:43.045Z,13.61
2022-10-08T21:41:37.914Z,13.42
2022-10-08T21:46:33.027Z,13.51
2022-10-08T21:51:26.769Z,13.26
2022-10-08T21:56:23.925Z,13.12
2022-10-08T22:01:22.893Z,13.40
2022-10-08T22:06:16.409Z,12.69
2022-10-08T22:11:09.597Z,13.08
2022-10-08T22:16:05.789Z,12.91
2022-10-08T22:21:02.390Z,13.13
2022-10-08T22:25:57.206Z,12.90
2022-10-08T22:30:50.837Z,13.07
2022-10-08T22:35:45.776Z,12.70
2022-10-08T22:40:40.183Z,12.13
2022-10-08T22:45:36.935Z,12.80
2022-10-08T22:50:30.173Z,12.73
2022-10-08T22:55:24.826Z,12.86
2022-10-08T23:00:18.170Z,12.82
2022-10-08T23:05:11.348Z,12.31
2022-10-08T23:10:04.808Z,12.61
2022-10-08T23:14:59.799Z,12.22
2022-10-08T23:19:53.182Z,12.23
2022-10-08T23:24:46.442Z,12.05
2022-10-08T23:29:39.730Z,12.13
2022-10-08T23:34:34.263Z,12.58
2022-10-08T23:39:27.501Z,12.60
2022-10-08T23:44:20.778Z,12.58
2022-10-08T23:49:13.883Z,12.58
2022-10-08T23:54:08.594Z,12.26
2022-10-08T23:59:01.945Z,11.91
